^^
Meteo Knjazevac Station Historical Data
Daily Summary for March 8, 2021 Units:  Metric    English   Both
Daily Weekly Monthly Yearly Custom
  High: Low: Average:
Temperature: 10.6 °C 8.3 °C 9.4 °C
Dew Point: 9.2 °C 7.7 °C 8.4 °C
Humidity: 98% 89% 93%
Wind Speed: 12.9km/h 3.2km/h 8.9km/h
Wind Gust: 25.7km/h - -
Wind- - NE
Pressure: 1024.9 hPa 1022.9 hPa -
Precipitation: 9.4 mm    
Historical Graphs
 
 
Tabular Data for March 8, 2021
Time Temperature Dew Point Pressure Wind Wind Speed Wind Gust Humidity Rainfall Rate (Hourly) solar Conditions
00:00 10.6 °C 9 °C 1023.2 hPa North 8 km/h 14.5 km/h 90% 0 mm 0 W/m2
00:10 10.5 °C 8.9 °C 1023.2 hPa North 8 km/h 12.9 km/h 90% 0 mm 0 W/m2
00:20 10.5 °C 9.1 °C 1023.2 hPa North 9.7 km/h 17.7 km/h 91% 0 mm 0 W/m2
00:30 10.5 °C 8.9 °C 1023.2 hPa North 9.7 km/h 19.3 km/h 90% 0 mm 0 W/m2
00:40 10.5 °C 9.1 °C 1023.2 hPa North 9.7 km/h 20.9 km/h 91% 0 mm 0 W/m2
00:50 10.4 °C 9 °C 1023.2 hPa North 9.7 km/h 20.9 km/h 91% 0 mm 0 W/m2
01:00 10.3 °C 8.9 °C 1023.2 hPa North 9.7 km/h 20.9 km/h 91% 0 mm 0 W/m2
01:10 10.3 °C 9.2 °C 1023.2 hPa North 8 km/h 19.3 km/h 93% 0 mm 0 W/m2
01:20 10.2 °C 9.1 °C 1023.2 hPa North 4.8 km/h 19.3 km/h 93% 0 mm 0 W/m2
01:30 10.2 °C 9.1 °C 1023.2 hPa North 8 km/h 19.3 km/h 93% 0 mm 0 W/m2
01:40 10.2 °C 9.1 °C 1023.2 hPa North 4.8 km/h 12.9 km/h 93% 0 mm 0 W/m2
01:50 10.1 °C 9 °C 1023.2 hPa North 8 km/h 14.5 km/h 93% 0 mm 0 W/m2
02:00 10.1 °C 9 °C 1023.2 hPa North 8 km/h 19.3 km/h 93% 0 mm 0 W/m2
02:10 10.1 °C 8.7 °C 1023.2 hPa North 11.3 km/h 19.3 km/h 91% 0 mm 0 W/m2
02:20 10.1 °C 9 °C 1023.2 hPa North 11.3 km/h 19.3 km/h 93% 0 mm 0 W/m2
02:30 10.1 °C 8.7 °C 1023.2 hPa NNE 8 km/h 19.3 km/h 91% 0 mm 0 W/m2
02:40 10.1 °C 9 °C 1023.6 hPa North 4.8 km/h 14.5 km/h 93% 0 mm 0 W/m2
02:50 10.1 °C 9 °C 1023.2 hPa North 8 km/h 16.1 km/h 93% 0 mm 0 W/m2
03:00 10.1 °C 8.7 °C 1023.2 hPa North 3.2 km/h 20.9 km/h 91% 0 mm 0 W/m2
03:10 10.1 °C 9 °C 1023.2 hPa North 9.7 km/h 19.3 km/h 93% 0 mm 0 W/m2
03:20 10 °C 8.6 °C 1023.2 hPa North 8 km/h 19.3 km/h 91% 0 mm 0 W/m2
03:30 10.1 °C 8.7 °C 1022.9 hPa North 11.3 km/h 19.3 km/h 91% 0 mm 0 W/m2
03:40 10.1 °C 8.6 °C 1022.9 hPa North 9.7 km/h 19.3 km/h 90% 0 mm 0 W/m2
03:50 10.1 °C 8.6 °C 1023.2 hPa North 9.7 km/h 20.9 km/h 90% 0 mm 0 W/m2
04:00 10.1 °C 8.6 °C 1022.9 hPa North 11.3 km/h 20.9 km/h 90% 0 mm 0 W/m2
04:10 10.1 °C 8.6 °C 1022.9 hPa North 12.9 km/h 20.9 km/h 90% 0 mm 0 W/m2
04:20 10.2 °C 8.4 °C 1022.9 hPa North 11.3 km/h 19.3 km/h 89% 0 mm 0 W/m2
04:30 10.2 °C 8.4 °C 1023.2 hPa North 9.7 km/h 20.9 km/h 89% 0 mm 0 W/m2
04:40 10.2 °C 8.4 °C 1022.9 hPa North 11.3 km/h 17.7 km/h 89% 0 mm 0 W/m2
04:50 10.1 °C 8.4 °C 1022.9 hPa North 4.8 km/h 16.1 km/h 89% 0 mm 0 W/m2
05:00 10.2 °C 8.4 °C 1022.9 hPa North 9.7 km/h 19.3 km/h 89% 0 mm 0 W/m2
05:10 10.2 °C 8.4 °C 1023.2 hPa North 9.7 km/h 19.3 km/h 89% 0 mm 0 W/m2
05:20 10.1 °C 8.4 °C 1023.2 hPa North 11.3 km/h 19.3 km/h 89% 0 mm 0 W/m2
05:30 10.1 °C 8.4 °C 1023.2 hPa North 9.7 km/h 20.9 km/h 89% 0 mm 0 W/m2
05:40 10 °C 8.3 °C 1023.2 hPa North 9.7 km/h 19.3 km/h 89% 0 mm 0 W/m2
05:50 10 °C 8.4 °C 1023.2 hPa North 9.7 km/h 19.3 km/h 90% 0 mm 0 W/m2
06:00 9.9 °C 8.3 °C 1023.2 hPa North 8 km/h 19.3 km/h 90% 0 mm 0 W/m2
06:10 9.8 °C 8.2 °C 1023.2 hPa North 9.7 km/h 17.7 km/h 90% 0 mm 0 W/m2
06:20 9.8 °C 8.2 °C 1023.2 hPa North 11.3 km/h 20.9 km/h 90% 0 mm 0 W/m2
06:30 9.7 °C 8.3 °C 1023.2 hPa North 11.3 km/h 20.9 km/h 91% 0.51 mm 0 W/m2
06:40 9.5 °C 8.6 °C 1023.2 hPa North 4.8 km/h 20.9 km/h 94% 1.02 mm 0 W/m2
06:50 9.3 °C 8.4 °C 1023.2 hPa North 8 km/h 16.1 km/h 94% 1.02 mm 1 W/m2
07:00 9.2 °C 8.4 °C 1023.6 hPa North 8 km/h 17.7 km/h 95% 0.76 mm 3 W/m2
07:10 9.2 °C 8.4 °C 1023.6 hPa North 9.7 km/h 20.9 km/h 95% 0.25 mm 6 W/m2
07:20 9.2 °C 8.4 °C 1023.6 hPa North 8 km/h 17.7 km/h 95% 0.25 mm 8 W/m2
07:30 9.1 °C 8.3 °C 1023.6 hPa North 9.7 km/h 17.7 km/h 95% 0.25 mm 23 W/m2
07:40 9.1 °C 8.5 °C 1023.6 hPa North 9.7 km/h 20.9 km/h 96% 0.25 mm 20 W/m2
07:50 9.1 °C 8.5 °C 1023.6 hPa North 9.7 km/h 24.1 km/h 96% 0 mm 24 W/m2
08:00 9 °C 8.4 °C 1023.6 hPa North 4.8 km/h 20.9 km/h 96% 0 mm 32 W/m2
08:10 9 °C 8.4 °C 1023.6 hPa NNE 8 km/h 22.5 km/h 96% 0.25 mm 29 W/m2
08:20 8.9 °C 8.3 °C 1023.6 hPa North 8 km/h 17.7 km/h 96% 0.25 mm 20 W/m2
08:30 8.9 °C 8.3 °C 1023.6 hPa NNE 9.7 km/h 22.5 km/h 96% 0.25 mm 25 W/m2
08:40 8.8 °C 8.2 °C 1023.9 hPa North 9.7 km/h 20.9 km/h 96% 0.25 mm 35 W/m2
08:50 8.8 °C 8.2 °C 1023.9 hPa NNE 8 km/h 22.5 km/h 96% 0 mm 39 W/m2
09:00 8.8 °C 8.1 °C 1023.9 hPa North 8 km/h 20.9 km/h 95% 0 mm 56 W/m2
09:10 8.8 °C 8.2 °C 1023.9 hPa NNE 8 km/h 20.9 km/h 96% 0 mm 79 W/m2
09:20 8.8 °C 8.1 °C 1024.3 hPa North 9.7 km/h 17.7 km/h 95% 0 mm 66 W/m2
09:30 8.7 °C 7.9 °C 1024.3 hPa North 4.8 km/h 24.1 km/h 95% 0 mm 58 W/m2
09:40 8.8 °C 8.1 °C 1024.3 hPa North 9.7 km/h 25.7 km/h 95% 0 mm 56 W/m2
09:50 8.8 °C 8.1 °C 1024.3 hPa North 9.7 km/h 25.7 km/h 95% 0 mm 52 W/m2
10:00 8.8 °C 7.9 °C 1024.3 hPa North 8 km/h 22.5 km/h 94% 0 mm 51 W/m2
10:10 8.8 °C 7.9 °C 1024.3 hPa North 9.7 km/h 20.9 km/h 94% 0 mm 59 W/m2
10:20 8.8 °C 7.9 °C 1024.6 hPa North 11.3 km/h 22.5 km/h 94% 0 mm 56 W/m2
10:30 8.8 °C 7.7 °C 1024.6 hPa North 9.7 km/h 25.7 km/h 93% 0 mm 51 W/m2
10:40 8.8 °C 7.7 °C 1024.6 hPa North 9.7 km/h 24.1 km/h 93% 0 mm 55 W/m2
10:50 8.8 °C 7.9 °C 1024.9 hPa North 9.7 km/h 22.5 km/h 94% 0 mm 67 W/m2
11:00 8.7 °C 7.8 °C 1024.9 hPa North 11.3 km/h 22.5 km/h 94% 0.25 mm 53 W/m2
11:10 8.6 °C 7.8 °C 1024.9 hPa North 9.7 km/h 22.5 km/h 95% 0.25 mm 69 W/m2
11:20 8.6 °C 7.8 °C 1024.9 hPa North 8 km/h 19.3 km/h 95% 0.25 mm 110 W/m2
11:30 8.6 °C 8 °C 1024.9 hPa North 8 km/h 16.1 km/h 96% 0 mm 117 W/m2
11:40 8.6 °C 8 °C 1024.9 hPa North 9.7 km/h 17.7 km/h 96% 0.25 mm 103 W/m2
11:50 8.6 °C 8 °C 1024.9 hPa North 9.7 km/h 16.1 km/h 96% 0 mm 112 W/m2
12:00 8.6 °C 8 °C 1024.6 hPa North 8 km/h 20.9 km/h 96% 0 mm 78 W/m2
12:10 8.5 °C 7.9 °C 1024.6 hPa North 4.8 km/h 19.3 km/h 96% 0 mm 59 W/m2
12:20 8.4 °C 7.8 °C 1024.6 hPa North 8 km/h 22.5 km/h 96% 0.25 mm 55 W/m2
12:30 8.4 °C 7.8 °C 1024.6 hPa North 9.7 km/h 24.1 km/h 96% 0.51 mm 56 W/m2
12:40 8.3 °C 7.7 °C 1024.6 hPa NNE 9.7 km/h 24.1 km/h 96% 0.25 mm 89 W/m2
12:50 8.4 °C 7.8 °C 1024.6 hPa North 8 km/h 24.1 km/h 96% 0.76 mm 76 W/m2
13:00 8.4 °C 8.1 °C 1024.6 hPa North 9.7 km/h 19.3 km/h 98% 1.02 mm 127 W/m2
13:10 8.4 °C 8.1 °C 1024.6 hPa North 4.8 km/h 19.3 km/h 98% 0.25 mm 175 W/m2
13:20 8.5 °C 8.2 °C 1024.3 hPa North 4.8 km/h 17.7 km/h 98% 0 mm 173 W/m2
13:30 8.5 °C 7.9 °C 1024.3 hPa North 8 km/h 25.7 km/h 96% 0 mm 200 W/m2
13:40 8.5 °C 7.9 °C 1024.3 hPa North 9.7 km/h 20.9 km/h 96% 0 mm 199 W/m2
13:50 8.5 °C 7.9 °C 1024.3 hPa North 9.7 km/h 22.5 km/h 96% 0 mm 126 W/m2
Knjazevac, Serbia
Compliments of Weather Underground - 2 mb